createdAt,value
2019-03-04T00:02:00.168Z,98810.64
2019-03-04T00:04:29.654Z,98817.00
2019-03-04T00:06:59.267Z,98814.30
2019-03-04T00:09:28.829Z,98820.08
2019-03-04T00:11:58.407Z,98830.46
2019-03-04T00:14:28.810Z,98818.06
2019-03-04T00:16:58.421Z,98807.19
2019-03-04T00:19:27.883Z,98809.63
2019-03-04T00:21:57.406Z,98812.39
2019-03-04T00:24:27.056Z,98812.12
2019-03-04T00:26:56.551Z,98812.80
2019-03-04T00:29:26.041Z,98808.31
2019-03-04T00:31:55.617Z,98808.62
2019-03-04T00:34:25.129Z,98809.32
2019-03-04T00:36:54.624Z,98811.37
2019-03-04T00:39:24.093Z,98812.02
2019-03-04T00:41:53.752Z,98817.61
2019-03-04T00:44:23.182Z,98809.12
2019-03-04T00:46:54.147Z,98810.16
2019-03-04T00:49:23.740Z,98810.67
2019-03-04T00:51:53.263Z,98811.45
2019-03-04T00:54:22.758Z,98811.20
2019-03-04T00:56:52.224Z,98811.81
2019-03-04T00:59:21.758Z,98808.07
2019-03-04T01:01:51.289Z,98803.02
2019-03-04T01:04:23.035Z,98791.90
2019-03-04T01:06:52.564Z,98794.16
2019-03-04T01:09:22.011Z,98788.30
2019-03-04T01:11:51.467Z,98783.82
2019-03-04T01:14:21.009Z,98778.80
2019-03-04T01:16:50.454Z,98770.76
2019-03-04T01:19:20.049Z,98766.92
2019-03-04T01:21:49.529Z,98773.83
2019-03-04T01:24:19.019Z,98764.47
2019-03-04T01:26:48.612Z,98759.78
2019-03-04T01:29:18.477Z,98754.06
2019-03-04T01:31:48.331Z,98755.91
2019-03-04T01:34:17.874Z,98751.56
2019-03-04T01:36:47.386Z,98751.73
2019-03-04T01:39:16.904Z,98753.42
2019-03-04T01:41:46.512Z,98753.92
2019-03-04T01:44:15.984Z,98752.07
2019-03-04T01:46:45.585Z,98741.09
2019-03-04T01:49:15.129Z,98745.97
2019-03-04T01:51:44.652Z,98739.23
2019-03-04T01:54:14.181Z,98740.22
2019-03-04T01:56:43.685Z,98741.83
2019-03-04T01:59:13.310Z,98732.66
2019-03-04T02:01:43.214Z,98728.28
2019-03-04T02:04:12.724Z,98726.94
2019-03-04T02:06:42.214Z,98725.16
2019-03-04T02:09:11.748Z,98722.83
2019-03-04T02:11:41.328Z,98721.36
2019-03-04T02:14:10.766Z,98713.98
2019-03-04T02:16:40.232Z,98703.88
2019-03-04T02:19:09.775Z,98698.36
2019-03-04T02:21:39.248Z,98704.45
2019-03-04T02:24:26.285Z,98707.52
2019-03-04T02:26:57.693Z,98707.73
2019-03-04T02:29:27.247Z,98704.36
2019-03-04T02:31:56.749Z,98706.72
2019-03-04T02:34:26.282Z,98712.61
2019-03-04T02:36:55.744Z,98711.77
2019-03-04T02:39:25.431Z,98707.73
2019-03-04T02:41:54.881Z,98706.72
2019-03-04T02:44:24.383Z,98706.55
2019-03-04T02:46:54.278Z,98701.63
2019-03-04T02:49:23.746Z,98701.33
2019-03-04T02:51:53.186Z,98706.14
2019-03-04T02:54:22.842Z,98704.42
2019-03-04T02:56:52.328Z,98697.81
2019-03-04T02:59:21.790Z,98702.12
2019-03-04T03:01:51.304Z,98699.35
2019-03-04T03:04:20.789Z,98696.78
2019-03-04T03:06:50.254Z,98693.38
2019-03-04T03:09:19.857Z,98689.55
2019-03-04T03:11:49.348Z,98685.88
2019-03-04T03:14:19.897Z,98685.45
2019-03-04T03:16:49.671Z,98679.92
2019-03-04T03:19:19.223Z,98676.77
2019-03-04T03:21:48.722Z,98678.28
2019-03-04T03:24:18.230Z,98676.13
2019-03-04T03:26:47.746Z,98678.69
2019-03-04T03:29:17.586Z,98680.34
2019-03-04T03:31:48.189Z,98671.62
2019-03-04T03:34:19.957Z,98665.27
2019-03-04T03:36:49.929Z,98663.08
2019-03-04T03:39:19.482Z,98663.28
2019-03-04T03:41:48.967Z,98669.64
2019-03-04T03:44:18.874Z,98665.30
2019-03-04T03:46:48.440Z,98670.69
2019-03-04T03:49:17.936Z,98670.99
2019-03-04T03:51:47.458Z,98665.77
2019-03-04T03:54:16.976Z,98659.58
2019-03-04T03:56:46.787Z,98668.93
2019-03-04T03:59:16.291Z,98665.16
2019-03-04T04:01:47.591Z,98658.17
2019-03-04T04:04:17.193Z,98657.72
2019-03-04T04:06:47.036Z,98659.44
2019-03-04T04:09:16.500Z,98659.70
2019-03-04T04:11:46.041Z,98654.27
2019-03-04T04:14:15.657Z,98640.41
2019-03-04T04:16:45.148Z,98636.03
2019-03-04T04:19:14.613Z,98634.77
2019-03-04T04:21:44.552Z,98631.14
2019-03-04T04:24:14.446Z,98627.69
2019-03-04T04:26:43.968Z,98622.25
2019-03-04T04:29:14.501Z,98616.20
2019-03-04T04:31:44.913Z,98613.08
2019-03-04T04:34:14.457Z,98614.59
2019-03-04T04:36:43.955Z,98612.95
2019-03-04T04:39:13.488Z,98616.66
2019-03-04T04:41:42.978Z,98614.67
2019-03-04T04:44:12.514Z,98614.55
2019-03-04T04:46:55.973Z,98616.40
2019-03-04T04:49:27.593Z,98616.78
2019-03-04T04:51:57.101Z,98616.48
2019-03-04T04:54:26.625Z,98614.80
2019-03-04T04:56:56.137Z,98610.39
2019-03-04T04:59:25.614Z,98607.05
2019-03-04T05:01:55.150Z,98603.44
2019-03-04T05:04:24.651Z,98598.17
2019-03-04T05:06:54.133Z,98590.05
2019-03-04T05:09:23.632Z,98594.64
2019-03-04T05:11:53.160Z,98594.72
2019-03-04T05:14:22.633Z,98587.52
2019-03-04T05:16:52.258Z,98587.59
2019-03-04T05:19:21.746Z,98584.64
2019-03-04T05:21:51.304Z,98581.34
2019-03-04T05:24:20.807Z,98576.59
2019-03-04T05:26:51.418Z,98569.13
2019-03-04T05:29:20.897Z,98566.02
2019-03-04T05:31:50.464Z,98558.37
2019-03-04T05:34:19.949Z,98564.35
2019-03-04T05:36:49.403Z,98558.38
2019-03-04T05:39:18.879Z,98559.31
2019-03-04T05:41:48.417Z,98557.30
2019-03-04T05:44:17.908Z,98550.77
2019-03-04T05:46:47.423Z,98543.70
2019-03-04T05:49:17.432Z,98543.40
2019-03-04T05:51:46.921Z,98536.72
2019-03-04T05:54:16.395Z,98529.68
2019-03-04T05:56:46.052Z,98525.30
2019-03-04T05:59:19.702Z,98519.80
2019-03-04T06:02:00.642Z,98512.94
2019-03-04T06:04:30.110Z,98503.00
2019-03-04T06:07:07.518Z,98509.22
2019-03-04T06:09:37.047Z,98503.50
2019-03-04T06:12:06.628Z,98498.45
2019-03-04T06:14:36.270Z,98495.04
2019-03-04T06:17:05.810Z,98492.80
2019-03-04T06:19:35.447Z,98491.16
2019-03-04T06:22:05.348Z,98488.02
2019-03-04T06:24:34.843Z,98489.28
2019-03-04T06:27:04.329Z,98486.31
2019-03-04T06:29:33.887Z,98476.28
2019-03-04T06:32:03.366Z,98480.27
2019-03-04T06:34:32.886Z,98477.69
2019-03-04T06:37:02.397Z,98482.87
2019-03-04T06:39:31.877Z,98477.81
2019-03-04T06:42:01.759Z,98472.30
2019-03-04T06:44:31.257Z,98475.27
2019-03-04T06:47:00.729Z,98478.02
2019-03-04T06:49:30.215Z,98471.88
2019-03-04T06:51:59.923Z,98463.38
2019-03-04T06:55:31.436Z,98474.84
2019-03-04T06:58:00.921Z,98467.09
2019-03-04T07:00:49.765Z,98466.25
2019-03-04T07:03:42.842Z,98461.37
2019-03-04T07:06:12.394Z,98460.23
2019-03-04T07:09:18.226Z,98456.52
2019-03-04T07:11:48.980Z,98453.23
2019-03-04T07:14:18.544Z,98448.58
2019-03-04T07:16:49.289Z,98446.22
2019-03-04T07:19:22.945Z,98448.70
2019-03-04T07:21:52.484Z,98442.59
2019-03-04T07:24:22.024Z,98438.55
2019-03-04T07:26:51.490Z,98438.55
2019-03-04T07:29:21.062Z,98443.64
2019-03-04T07:31:51.421Z,98438.64
2019-03-04T07:34:20.934Z,98436.34
2019-03-04T07:36:50.392Z,98433.02
2019-03-04T07:39:20.821Z,98435.08
2019-03-04T07:41:52.248Z,98434.42
2019-03-04T07:44:22.582Z,98426.67
2019-03-04T07:46:52.011Z,98421.78
2019-03-04T07:49:21.560Z,98416.73
2019-03-04T07:51:51.587Z,98420.77
2019-03-04T07:54:21.076Z,98415.37
2019-03-04T07:56:50.573Z,98412.56
2019-03-04T07:59:20.176Z,98421.16
2019-03-04T08:01:49.637Z,98420.65
2019-03-04T08:04:19.178Z,98418.13
2019-03-04T08:06:50.902Z,98416.16
2019-03-04T08:09:49.931Z,98410.44
2019-03-04T08:12:54.677Z,98413.13
2019-03-04T08:15:24.376Z,98415.53
2019-03-04T08:17:53.859Z,98415.20
2019-03-04T08:20:23.325Z,98407.63
2019-03-04T08:22:52.882Z,98404.30
2019-03-04T08:25:22.349Z,98402.66
2019-03-04T08:27:51.918Z,98399.13
2019-03-04T08:30:23.062Z,98397.57
2019-03-04T08:32:52.752Z,98396.16
2019-03-04T08:35:22.284Z,98390.89
2019-03-04T08:37:51.882Z,98391.19
2019-03-04T08:40:21.453Z,98382.30
2019-03-04T08:42:50.933Z,98387.80
2019-03-04T08:45:21.283Z,98389.78
2019-03-04T08:47:50.838Z,98382.20
2019-03-04T08:50:20.377Z,98383.04
2019-03-04T08:52:49.940Z,98376.09
2019-03-04T08:55:19.581Z,98379.95
2019-03-04T08:57:49.208Z,98380.76
2019-03-04T09:00:21.167Z,98373.22
2019-03-04T09:02:50.812Z,98377.26
2019-03-04T09:05:20.447Z,98371.33
2019-03-04T09:07:50.023Z,98361.89
2019-03-04T09:10:30.311Z,98362.22
2019-03-04T09:12:59.963Z,98358.06
2019-03-04T09:15:29.580Z,98357.22
2019-03-04T09:17:59.258Z,98348.01
2019-03-04T09:20:29.000Z,98348.52
2019-03-04T09:22:58.601Z,98342.80
2019-03-04T09:25:34.181Z,98338.76
2019-03-04T09:28:03.818Z,98335.55
2019-03-04T09:30:33.320Z,98328.30
2019-03-04T09:33:03.891Z,98322.08
2019-03-04T09:35:33.402Z,98322.59
2019-03-04T09:38:02.960Z,98323.42
2019-03-04T09:40:32.561Z,98322.20
2019-03-04T09:43:02.137Z,98307.19
2019-03-04T09:45:38.651Z,98305.62
2019-03-04T09:48:03.069Z,98311.34
2019-03-04T09:50:32.801Z,98307.30
2019-03-04T09:53:02.296Z,98305.95
2019-03-04T09:55:32.029Z,98305.30
2019-03-04T09:58:01.576Z,98302.94
2019-03-04T10:01:04.560Z,98295.57
2019-03-04T10:04:13.879Z,98289.86
2019-03-04T10:07:28.028Z,98285.81
2019-03-04T10:10:53.899Z,98281.27
2019-03-04T10:13:49.197Z,98276.49
2019-03-04T10:16:49.235Z,98268.92
2019-03-04T10:19:57.207Z,98266.55
2019-03-04T10:23:16.463Z,98263.45
2019-03-04T10:26:23.998Z,98263.56
2019-03-04T10:29:19.163Z,98255.16
2019-03-04T10:32:47.820Z,98258.36
2019-03-04T10:35:42.621Z,98249.14
2019-03-04T10:38:51.722Z,98246.66
2019-03-04T10:41:56.093Z,98240.33
2019-03-04T10:45:12.535Z,98244.55
2019-03-04T10:47:42.095Z,98239.89
2019-03-04T10:50:11.771Z,98234.39
2019-03-04T10:52:41.351Z,98231.19
2019-03-04T10:55:11.999Z,98234.20
2019-03-04T10:57:41.629Z,98220.19
2019-03-04T11:00:17.197Z,98216.48
2019-03-04T11:02:46.801Z,98212.22
2019-03-04T11:05:16.422Z,98203.44
2019-03-04T11:07:45.927Z,98199.91
2019-03-04T11:10:15.576Z,98193.78
2019-03-04T11:12:45.109Z,98191.09
2019-03-04T11:15:20.247Z,98180.09
2019-03-04T11:17:49.784Z,98186.73
2019-03-04T11:20:19.413Z,98178.34
2019-03-04T11:22:48.971Z,98177.84
2019-03-04T11:25:19.523Z,98177.84
2019-03-04T11:27:49.234Z,98177.84
2019-03-04T11:30:20.775Z,98168.59
2019-03-04T11:32:50.275Z,98169.75
2019-03-04T11:35:19.751Z,98164.15
2019-03-04T11:37:49.335Z,98157.73
2019-03-04T11:40:29.766Z,98155.84
2019-03-04T11:42:59.448Z,98144.36
2019-03-04T11:45:29.027Z,98147.68
2019-03-04T11:47:58.771Z,98142.07
2019-03-04T11:50:28.260Z,98135.98
2019-03-04T11:52:57.863Z,98129.86
2019-03-04T11:55:28.007Z,98122.06
2019-03-04T11:57:57.539Z,98115.66
2019-03-04T12:00:50.572Z,98111.61
2019-03-04T12:03:20.105Z,98105.89
2019-03-04T12:05:49.602Z,98104.44
2019-03-04T12:08:19.155Z,98091.19
2019-03-04T12:10:48.756Z,98093.38
2019-03-04T12:13:18.259Z,98087.14
2019-03-04T12:15:48.551Z,98094.72
2019-03-04T12:18:18.057Z,98088.17
2019-03-04T12:20:47.690Z,98094.09
2019-03-04T12:23:17.468Z,98090.06
2019-03-04T12:25:47.091Z,98083.83
2019-03-04T12:28:17.932Z,98078.63
2019-03-04T12:30:47.570Z,98071.06
2019-03-04T12:33:17.151Z,98065.89
2019-03-04T12:35:46.818Z,98059.56
2019-03-04T12:38:16.498Z,98062.77
2019-03-04T12:40:46.086Z,98053.78
2019-03-04T12:43:15.689Z,98050.76
2019-03-04T12:45:45.316Z,98044.24
2019-03-04T12:48:14.874Z,98039.88
2019-03-04T12:50:44.438Z,98032.81
2019-03-04T12:53:13.991Z,98028.48
2019-03-04T12:55:43.575Z,98026.30
2019-03-04T12:58:13.188Z,98020.91
2019-03-04T13:00:43.141Z,98020.59
2019-03-04T13:03:21.409Z,98015.20
2019-03-04T13:05:51.102Z,98011.16
2019-03-04T13:08:20.630Z,98009.30
2019-03-04T13:10:50.305Z,98002.56
2019-03-04T13:13:19.811Z,98000.70
2019-03-04T13:15:50.950Z,98000.48
2019-03-04T13:18:20.466Z,97996.45
2019-03-04T13:20:50.127Z,97991.89
2019-03-04T13:23:19.623Z,97988.91
2019-03-04T13:25:49.207Z,97979.98
2019-03-04T13:28:18.699Z,97974.78
2019-03-04T13:30:48.378Z,97973.15
2019-03-04T13:33:17.844Z,97964.74
2019-03-04T13:35:47.352Z,97969.30
2019-03-04T13:38:16.945Z,97961.73
2019-03-04T13:40:46.532Z,97957.39
2019-03-04T13:43:16.024Z,97952.74
2019-03-04T13:45:45.747Z,97946.52
2019-03-04T13:48:15.230Z,97937.61
2019-03-04T13:50:45.027Z,97933.78
2019-03-04T13:53:14.631Z,97933.78
2019-03-04T13:55:44.224Z,97927.85
2019-03-04T13:58:13.709Z,97920.83
2019-03-04T14:00:43.526Z,97918.55
2019-03-04T14:03:14.231Z,97904.47
2019-03-04T14:05:44.347Z,97897.09
2019-03-04T14:08:14.225Z,97897.09
2019-03-04T14:10:43.876Z,97889.74
2019-03-04T14:13:14.006Z,97887.27
2019-03-04T14:15:43.683Z,97881.27
2019-03-04T14:18:13.272Z,97881.27
2019-03-04T14:20:43.723Z,97879.60
2019-03-04T14:23:13.250Z,97870.40
2019-03-04T14:25:42.891Z,97865.30
2019-03-04T14:28:12.526Z,97864.79
2019-03-04T14:30:42.099Z,97858.89
2019-03-04T14:33:11.759Z,97855.14
2019-03-04T14:35:41.292Z,97848.41
2019-03-04T14:38:10.984Z,97849.56
2019-03-04T14:40:40.789Z,97847.70
2019-03-04T14:43:10.428Z,97840.97
2019-03-04T14:45:40.010Z,97841.27
2019-03-04T14:48:09.618Z,97836.20
2019-03-04T14:50:39.146Z,97839.91
2019-03-04T14:53:08.847Z,97836.39
2019-03-04T14:55:38.396Z,97834.75
2019-03-04T14:58:07.980Z,97829.05
2019-03-04T15:00:39.707Z,97826.06
2019-03-04T15:03:19.144Z,97823.05
2019-03-04T15:05:40.804Z,97818.69
2019-03-04T15:08:10.375Z,97814.36
2019-03-04T15:10:40.069Z,97817.56
2019-03-04T15:13:10.150Z,97810.19
2019-03-04T15:15:40.734Z,97806.44
2019-03-04T15:18:10.341Z,97796.41
2019-03-04T15:20:40.164Z,97792.05
2019-03-04T15:23:09.716Z,97790.41
2019-03-04T15:25:39.711Z,97785.02
2019-03-04T15:28:11.193Z,97785.77
2019-03-04T15:30:41.391Z,97773.32
2019-03-04T15:33:17.917Z,97777.88
2019-03-04T15:35:42.378Z,97777.04
2019-03-04T15:38:11.924Z,97778.09
2019-03-04T15:40:41.496Z,97764.83
2019-03-04T15:43:11.219Z,97766.91
2019-03-04T15:45:44.217Z,97766.40
2019-03-04T15:48:14.070Z,97763.93
2019-03-04T15:50:43.725Z,97761.75
2019-03-04T15:53:13.399Z,97755.02
2019-03-04T15:55:44.030Z,97742.39
2019-03-04T15:58:14.688Z,97735.11
2019-03-04T16:00:44.393Z,97732.42
2019-03-04T16:03:14.011Z,97735.75
2019-03-04T16:05:43.747Z,97726.94
2019-03-04T16:08:13.646Z,97713.47
2019-03-04T16:10:44.150Z,97721.84
2019-03-04T16:13:14.160Z,97717.09
2019-03-04T16:15:44.991Z,97721.94
2019-03-04T16:18:14.651Z,97708.19
2019-03-04T16:20:44.285Z,97702.28
2019-03-04T16:23:16.078Z,97699.05
2019-03-04T16:25:45.717Z,97692.86
2019-03-04T16:28:17.799Z,97689.02
2019-03-04T16:30:49.601Z,97685.20
2019-03-04T16:33:19.461Z,97682.80
2019-03-04T16:35:49.440Z,97673.09
2019-03-04T16:38:19.007Z,97664.69
2019-03-04T16:40:48.723Z,97662.00
2019-03-04T16:43:18.289Z,97658.47
2019-03-04T16:45:47.784Z,97663.05
2019-03-04T16:48:17.413Z,97653.31
2019-03-04T16:50:47.056Z,97652.58
2019-03-04T16:53:16.986Z,97648.25
2019-03-04T16:55:46.504Z,97643.38
2019-03-04T16:58:16.104Z,97640.37
2019-03-04T17:00:46.933Z,97640.88
2019-03-04T17:03:16.748Z,97639.25
2019-03-04T17:05:46.259Z,97632.71
2019-03-04T17:08:15.829Z,97621.43
2019-03-04T17:10:46.293Z,97620.91
2019-03-04T17:13:15.809Z,97618.23
2019-03-04T17:15:45.390Z,97614.70
2019-03-04T17:18:14.960Z,97615.53
2019-03-04T17:20:44.481Z,97611.49
2019-03-04T17:23:14.156Z,97604.25
2019-03-04T17:25:43.735Z,97604.25
2019-03-04T17:28:13.241Z,97594.59
2019-03-04T17:30:43.025Z,97597.38
2019-03-04T17:33:13.161Z,97590.97
2019-03-04T17:35:42.707Z,97582.89
2019-03-04T17:38:12.963Z,97582.15
2019-03-04T17:40:42.589Z,97583.58
2019-03-04T17:43:12.210Z,97577.17
2019-03-04T17:45:42.021Z,97580.98
2019-03-04T17:48:11.609Z,97574.25
2019-03-04T17:50:41.193Z,97580.46
2019-03-04T17:53:10.873Z,97574.25
2019-03-04T17:55:40.649Z,97567.20
2019-03-04T17:58:10.322Z,97571.78
2019-03-04T18:00:41.824Z,97565.25
2019-03-04T18:03:11.458Z,97559.95
2019-03-04T18:05:43.336Z,97556.23
2019-03-04T18:08:13.821Z,97553.14
2019-03-04T18:10:43.431Z,97548.36
2019-03-04T18:13:13.664Z,97547.33
2019-03-04T18:15:43.485Z,97545.23
2019-03-04T18:18:13.812Z,97532.37
2019-03-04T18:20:43.642Z,97530.36
2019-03-04T18:23:13.237Z,97525.89
2019-03-04T18:25:49.110Z,97523.80
2019-03-04T18:28:28.655Z,97519.64
2019-03-04T18:31:12.025Z,97515.97
2019-03-04T18:34:19.973Z,97520.84
2019-03-04T18:37:03.093Z,97508.63
2019-03-04T18:40:28.773Z,97518.49
2019-03-04T18:43:30.462Z,97508.35
2019-03-04T18:46:46.747Z,97490.26
2019-03-04T18:49:16.721Z,97486.14
2019-03-04T18:51:46.239Z,97481.55
2019-03-04T18:54:17.592Z,97477.06
2019-03-04T18:56:47.145Z,97472.55
2019-03-04T18:59:16.765Z,97471.08
2019-03-04T19:01:46.466Z,97468.86
2019-03-04T19:04:16.046Z,97467.34
2019-03-04T19:06:45.644Z,97463.15
2019-03-04T19:09:15.516Z,97460.36
2019-03-04T19:11:45.176Z,97457.50
2019-03-04T19:14:14.681Z,97450.03
2019-03-04T19:16:44.207Z,97441.70
2019-03-04T19:19:16.137Z,97442.82
2019-03-04T19:21:45.630Z,97436.91
2019-03-04T19:24:15.229Z,97426.29
2019-03-04T19:26:44.810Z,97424.72
2019-03-04T19:29:14.504Z,97425.81
2019-03-04T19:31:44.131Z,97423.69
2019-03-04T19:34:13.740Z,97428.09
2019-03-04T19:36:43.276Z,97421.83
2019-03-04T19:39:12.823Z,97418.06
2019-03-04T19:41:42.401Z,97418.38
2019-03-04T19:44:12.123Z,97422.19
2019-03-04T19:46:41.839Z,97419.80
2019-03-04T19:49:11.530Z,97421.43
2019-03-04T19:51:41.061Z,97418.53
2019-03-04T19:54:10.672Z,97416.42
2019-03-04T19:56:40.317Z,97409.17
2019-03-04T19:59:09.944Z,97416.50
2019-03-04T20:01:42.754Z,97416.50
2019-03-04T20:04:12.499Z,97410.91
2019-03-04T20:06:42.001Z,97414.33
2019-03-04T20:09:11.833Z,97414.05
2019-03-04T20:11:41.591Z,97413.66
2019-03-04T20:14:11.327Z,97411.84
2019-03-04T20:16:40.967Z,97415.73
2019-03-04T20:19:10.740Z,97412.36
2019-03-04T20:21:40.459Z,97407.65
2019-03-04T20:24:10.048Z,97411.30
2019-03-04T20:26:39.648Z,97409.36
2019-03-04T20:29:09.189Z,97407.49
2019-03-04T20:31:38.670Z,97411.61
2019-03-04T20:34:08.208Z,97408.33
2019-03-04T20:36:37.747Z,97404.28
2019-03-04T20:39:10.000Z,97407.94
2019-03-04T20:41:39.670Z,97409.52
2019-03-04T20:44:12.099Z,97405.66
2019-03-04T20:46:41.577Z,97393.13
2019-03-04T20:49:11.307Z,97395.63
2019-03-04T20:51:40.897Z,97402.28
2019-03-04T20:54:10.374Z,97402.88
2019-03-04T20:56:39.977Z,97395.16
2019-03-04T20:59:09.710Z,97404.44
2019-03-04T21:01:39.311Z,97401.36
2019-03-04T21:04:08.861Z,97398.27
2019-03-04T21:06:38.529Z,97411.66
2019-03-04T21:09:10.297Z,97415.63
2019-03-04T21:11:39.890Z,97421.52
2019-03-04T21:14:09.417Z,97421.52
2019-03-04T21:16:38.989Z,97425.56
2019-03-04T21:19:08.787Z,97420.26
2019-03-04T21:21:39.741Z,97427.38
2019-03-04T21:24:09.282Z,97426.71
2019-03-04T21:26:42.277Z,97428.22
2019-03-04T21:29:52.937Z,97432.65
2019-03-04T21:32:47.275Z,97430.86
2019-03-04T21:36:14.398Z,97423.97
2019-03-04T21:38:43.664Z,97424.36
2019-03-04T21:42:00.312Z,97417.94
2019-03-04T21:45:14.080Z,97429.59
2019-03-04T21:47:51.118Z,97431.56
2019-03-04T21:50:25.535Z,97425.42
2019-03-04T21:53:16.288Z,97429.08
2019-03-04T21:56:07.906Z,97433.95
2019-03-04T21:58:37.384Z,97435.68
2019-03-04T22:01:22.920Z,97443.61
2019-03-04T22:03:52.678Z,97445.03
2019-03-04T22:06:22.268Z,97445.97
2019-03-04T22:08:51.788Z,97446.28
2019-03-04T22:11:21.274Z,97448.22
2019-03-04T22:13:50.884Z,97453.38
2019-03-04T22:16:20.392Z,97454.21
2019-03-04T22:18:49.897Z,97454.52
2019-03-04T22:21:19.425Z,97456.98
2019-03-04T22:23:48.942Z,97458.33
2019-03-04T22:26:18.570Z,97465.59
2019-03-04T22:28:48.123Z,97468.52
2019-03-04T22:31:17.648Z,97467.38
2019-03-04T22:33:47.234Z,97475.39
2019-03-04T22:36:16.705Z,97473.41
2019-03-04T22:38:46.277Z,97469.30
2019-03-04T22:41:15.835Z,97469.22
2019-03-04T22:43:45.280Z,97474.84
2019-03-04T22:46:14.752Z,97474.25
2019-03-04T22:48:44.406Z,97461.49
2019-03-04T22:51:13.853Z,97473.55
2019-03-04T22:53:43.327Z,97477.50
2019-03-04T22:56:12.802Z,97479.61
2019-03-04T22:58:42.357Z,97478.70
2019-03-04T23:01:53.982Z,97484.52
2019-03-04T23:04:31.215Z,97486.10
2019-03-04T23:07:12.121Z,97484.95
2019-03-04T23:10:01.909Z,97487.29
2019-03-04T23:12:40.643Z,97490.10
2019-03-04T23:15:13.067Z,97489.22
2019-03-04T23:17:42.575Z,97493.03
2019-03-04T23:20:12.062Z,97491.61
2019-03-04T23:22:41.667Z,97501.52
2019-03-04T23:25:12.117Z,97499.22
2019-03-04T23:27:41.579Z,97500.13
2019-03-04T23:30:13.711Z,97504.61
2019-03-04T23:32:43.308Z,97510.35
2019-03-04T23:35:12.866Z,97514.23
2019-03-04T23:37:42.466Z,97513.84
2019-03-04T23:40:12.405Z,97530.15
2019-03-04T23:42:42.287Z,97532.67
2019-03-04T23:45:14.604Z,97527.41
2019-03-04T23:47:44.055Z,97538.61
2019-03-04T23:50:16.635Z,97538.84
2019-03-04T23:52:46.237Z,97545.26
2019-03-04T23:55:16.207Z,97542.80
2019-03-04T23:57:45.742Z,97548.93
